Time;durP1;ratioP1;P1;durP2;ratioP2;P2;SDS_P1;SDS_P2;PMS_P1;PMS_P2;Temp;Humidity;BMP_temperature;BMP_pressure;BME280_temperature;BME280_humidity;BME280_pressure;Samples;Min_cycle;Max_cycle;Signal;HPM_P1;HPM_P2
2023/11/09 00:00:49;;;;;;;0.63;0.43;;;9.70;99.90;;;;;;5010268;28;20475;-65
2023/11/09 00:03:15;;;;;;;0.60;0.60;;;9.60;99.90;;;;;;5027346;28;20071;-65
2023/11/09 00:05:43;;;;;;;0.80;0.80;;;9.70;99.90;;;;;;5013628;28;20033;-64
2023/11/09 00:08:08;;;;;;;2.78;0.60;;;9.70;99.90;;;;;;5031056;28;20081;-64
2023/11/09 00:10:34;;;;;;;0.60;0.60;;;9.60;99.90;;;;;;5041030;28;20080;-64
2023/11/09 00:13:00;;;;;;;0.50;0.50;;;9.60;99.90;;;;;;5047396;28;20079;-65
2023/11/09 00:15:26;;;;;;;0.90;0.50;;;9.70;99.90;;;;;;5030078;28;20068;-65
2023/11/09 00:17:52;;;;;;;0.68;0.50;;;9.60;99.90;;;;;;5047668;28;20178;-65
2023/11/09 00:20:20;;;;;;;0.65;0.30;;;9.70;99.90;;;;;;5020821;28;20087;-65
2023/11/09 00:22:46;;;;;;;0.32;0.32;;;9.60;99.90;;;;;;5030052;28;20053;-65
2023/11/09 00:25:13;;;;;;;0.40;0.40;;;9.70;99.90;;;;;;5029482;28;20041;-65
2023/11/09 00:27:39;;;;;;;0.45;0.45;;;9.60;99.90;;;;;;5047166;28;20451;-65
2023/11/09 00:30:06;;;;;;;0.30;0.30;;;9.70;99.90;;;;;;5037419;28;20042;-65
2023/11/09 00:32:33;;;;;;;0.20;0.20;;;9.70;99.90;;;;;;5025963;28;20068;-65
2023/11/09 00:34:58;;;;;;;0.82;0.50;;;9.70;99.90;;;;;;5018621;28;20418;-64
2023/11/09 00:37:28;;;;;;;0.60;0.45;;;9.70;99.90;;;;;;4982481;28;20042;-64
2023/11/09 00:39:56;;;;;;;0.40;0.40;;;9.70;99.90;;;;;;5008000;28;20164;-64
2023/11/09 00:42:22;;;;;;;0.82;0.30;;;9.70;99.90;;;;;;5036964;28;20101;-64
2023/11/09 00:44:48;;;;;;;2.72;0.40;;;9.70;99.90;;;;;;5045798;28;20044;-64
2023/11/09 00:47:15;;;;;;;0.30;0.30;;;9.70;99.90;;;;;;5046918;28;20495;-64
2023/11/09 00:49:41;;;;;;;0.40;0.40;;;9.70;99.90;;;;;;5046838;28;20053;-64
2023/11/09 00:52:07;;;;;;;0.30;0.30;;;9.70;99.90;;;;;;5033735;28;20483;-64
2023/11/09 00:54:33;;;;;;;0.40;0.40;;;9.80;99.90;;;;;;5001749;28;20070;-64
2023/11/09 00:56:59;;;;;;;0.60;0.30;;;9.70;99.90;;;;;;5015174;28;20067;-64
2023/11/09 00:59:24;;;;;;;0.32;0.32;;;9.80;99.90;;;;;;5046364;28;20052;-64
2023/11/09 01:01:50;;;;;;;0.30;0.30;;;9.80;99.90;;;;;;5041279;28;20037;-64
2023/11/09 01:04:17;;;;;;;0.28;0.28;;;9.70;99.90;;;;;;5028688;28;20045;-64
2023/11/09 01:06:43;;;;;;;0.95;0.40;;;9.90;99.90;;;;;;5023555;28;20048;-64
2023/11/09 01:09:08;;;;;;;0.90;0.50;;;9.80;99.90;;;;;;5021156;28;20053;-64
2023/11/09 01:11:34;;;;;;;0.30;0.30;;;9.80;99.90;;;;;;5022444;28;20107;-65
2023/11/09 01:14:00;;;;;;;1.35;0.30;;;9.80;99.90;;;;;;5039753;28;20041;-65
2023/11/09 01:16:25;;;;;;;0.30;0.30;;;9.80;99.90;;;;;;5028248;28;20141;-64
2023/11/09 01:18:51;;;;;;;0.40;0.40;;;9.80;99.90;;;;;;5028586;28;20052;-65
2023/11/09 01:21:17;;;;;;;0.75;0.45;;;9.80;99.90;;;;;;5027037;28;20050;-65
2023/11/09 01:23:44;;;;;;;0.22;0.22;;;9.80;99.90;;;;;;5026727;28;20080;-65
2023/11/09 01:26:10;;;;;;;0.40;0.40;;;9.90;99.90;;;;;;5006960;28;20048;-65
2023/11/09 01:28:36;;;;;;;0.40;0.40;;;9.80;99.90;;;;;;5012681;28;20045;-65
2023/11/09 01:31:03;;;;;;;0.40;0.40;;;9.90;99.90;;;;;;5026816;28;20053;-65
2023/11/09 01:33:28;;;;;;;1.60;0.40;;;9.90;99.90;;;;;;5040894;28;20124;-65
2023/11/09 01:35:55;;;;;;;0.30;0.30;;;9.80;99.90;;;;;;5010328;28;20128;-65
2023/11/09 01:38:20;;;;;;;3.83;0.30;;;9.90;99.90;;;;;;5029885;28;20080;-65
2023/11/09 01:40:53;;;;;;;0.30;0.30;;;9.80;99.90;;;;;;5010692;28;20542;-66
2023/11/09 01:43:19;;;;;;;0.28;0.28;;;9.90;99.90;;;;;;5027390;28;20490;-65
2023/11/09 01:45:45;;;;;;;1.05;0.30;;;9.80;99.90;;;;;;5021146;28;20051;-65
2023/11/09 01:48:14;;;;;;;0.25;0.25;;;9.80;99.90;;;;;;5041229;28;20041;-65
2023/11/09 01:50:40;;;;;;;2.83;0.30;;;9.80;99.90;;;;;;5036474;28;20037;-65
2023/11/09 01:53:09;;;;;;;0.55;0.30;;;9.80;99.90;;;;;;5036897;28;20056;-65
2023/11/09 01:55:35;;;;;;;4.45;1.27;;;9.80;99.90;;;;;;5047771;28;20106;-65
2023/11/09 01:58:03;;;;;;;0.80;0.20;;;9.90;99.90;;;;;;5022697;28;20061;-66
2023/11/09 02:00:29;;;;;;;0.40;0.40;;;9.90;99.90;;;;;;5028421;28;20044;-65
2023/11/09 02:02:56;;;;;;;2.50;0.30;;;9.90;99.90;;;;;;5023000;28;20072;-65
2023/11/09 02:05:25;;;;;;;0.50;0.47;;;9.90;99.90;;;;;;5020979;28;20575;-65
2023/11/09 02:07:53;;;;;;;0.40;0.38;;;9.80;99.90;;;;;;5037375;28;20034;-65
2023/11/09 02:10:19;;;;;;;2.28;0.50;;;9.80;99.90;;;;;;5031301;28;20131;-66
2023/11/09 02:12:45;;;;;;;0.40;0.40;;;9.80;99.90;;;;;;4997352;28;20133;-65
2023/11/09 02:15:11;;;;;;;0.45;0.30;;;9.90;99.90;;;;;;5040618;28;20562;-65
2023/11/09 02:17:37;;;;;;;1.17;0.30;;;9.90;99.90;;;;;;5049145;28;20144;-65
2023/11/09 02:20:04;;;;;;;0.40;0.40;;;9.90;99.90;;;;;;5032140;28;20128;-65
2023/11/09 02:22:31;;;;;;;1.23;0.55;;;9.80;99.90;;;;;;5011674;28;20180;-66
2023/11/09 02:24:58;;;;;;;0.40;0.40;;;9.80;99.90;;;;;;5032236;28;20045;-65
2023/11/09 02:27:24;;;;;;;0.28;0.28;;;9.90;99.90;;;;;;5049575;28;20052;-65
2023/11/09 02:29:49;;;;;;;1.02;0.40;;;9.90;99.90;;;;;;5049485;28;20064;-65
2023/11/09 02:32:15;;;;;;;0.32;0.32;;;9.90;99.90;;;;;;5027457;28;20048;-65
2023/11/09 02:34:41;;;;;;;0.55;0.30;;;9.90;99.90;;;;;;5046214;28;20051;-65
2023/11/09 02:37:07;;;;;;;0.80;0.20;;;9.80;99.90;;;;;;5031962;28;20171;-65
2023/11/09 02:39:35;;;;;;;0.30;0.30;;;9.90;99.90;;;;;;5030913;28;20053;-65
2023/11/09 02:42:02;;;;;;;0.30;0.30;;;9.80;99.90;;;;;;5031806;28;20090;-65
2023/11/09 02:44:28;;;;;;;0.82;0.30;;;9.90;99.90;;;;;;5046402;28;20084;-65
2023/11/09 02:46:54;;;;;;;0.20;0.20;;;9.90;99.90;;;;;;5019784;28;20048;-65
2023/11/09 02:49:20;;;;;;;0.30;0.30;;;10.00;99.90;;;;;;5049127;28;20041;-65
2023/11/09 02:51:46;;;;;;;0.40;0.40;;;9.90;99.90;;;;;;5048821;28;20059;-65
2023/11/09 02:54:12;;;;;;;0.30;0.30;;;9.90;99.90;;;;;;5039160;28;20060;-64
2023/11/09 02:56:37;;;;;;;0.30;0.30;;;9.90;99.90;;;;;;5044398;28;20088;-65
2023/11/09 02:59:04;;;;;;;1.65;0.30;;;9.90;99.90;;;;;;5049349;28;20064;-64
2023/11/09 03:01:31;;;;;;;1.85;0.15;;;9.90;99.90;;;;;;5024711;28;20136;-64
2023/11/09 03:03:57;;;;;;;1.60;0.30;;;9.90;99.90;;;;;;4995797;28;20141;-65
2023/11/09 03:06:23;;;;;;;0.38;0.38;;;9.90;99.90;;;;;;5033123;28;20092;-65
2023/11/09 03:08:49;;;;;;;0.73;0.20;;;10.00;99.90;;;;;;5027027;28;20084;-65
2023/11/09 03:11:18;;;;;;;0.20;0.20;;;9.90;99.90;;;;;;5042575;28;20429;-65
2023/11/09 03:13:44;;;;;;;0.20;0.20;;;9.80;99.90;;;;;;5023598;28;20115;-65
2023/11/09 03:16:11;;;;;;;0.10;0.10;;;9.80;99.90;;;;;;5035013;28;20451;-65
2023/11/09 03:18:37;;;;;;;0.30;0.30;;;9.90;99.90;;;;;;5048642;28;20453;-65
2023/11/09 03:21:03;;;;;;;0.40;0.20;;;9.90;99.90;;;;;;5048589;28;20052;-65
2023/11/09 03:23:28;;;;;;;0.20;0.20;;;9.90;99.90;;;;;;5030270;28;20053;-65
2023/11/09 03:25:54;;;;;;;0.47;0.20;;;9.90;99.90;;;;;;5036232;28;20056;-65
2023/11/09 03:28:20;;;;;;;1.95;0.20;;;9.80;99.90;;;;;;5030771;28;20044;-65
2023/11/09 03:30:46;;;;;;;0.00;0.00;;;9.80;99.90;;;;;;5048190;28;20124;-65
2023/11/09 03:33:12;;;;;;;0.10;0.10;;;9.90;99.90;;;;;;5047312;28;20049;-65
2023/11/09 03:35:38;;;;;;;0.30;0.20;;;9.90;99.90;;;;;;5024641;28;20093;-65
2023/11/09 03:38:03;;;;;;;0.20;0.20;;;9.90;99.90;;;;;;5042306;28;20045;-65
2023/11/09 03:40:30;;;;;;;0.20;0.20;;;9.90;99.90;;;;;;5036973;28;20056;-65
2023/11/09 03:42:56;;;;;;;0.22;0.20;;;9.90;99.90;;;;;;5048504;28;20060;-65
2023/11/09 03:45:22;;;;;;;0.25;0.25;;;9.90;99.90;;;;;;5048505;28;20372;-65
2023/11/09 03:47:48;;;;;;;0.38;0.17;;;9.90;99.90;;;;;;5024625;28;20048;-65
2023/11/09 03:50:14;;;;;;;0.30;0.30;;;9.90;99.90;;;;;;5037960;28;20111;-65
2023/11/09 03:52:39;;;;;;;0.40;0.20;;;9.90;99.90;;;;;;5030238;28;20044;-65
2023/11/09 03:55:11;;;;;;;0.30;0.10;;;9.90;99.90;;;;;;5026484;28;20417;-65
2023/11/09 03:57:38;;;;;;;0.20;0.20;;;9.90;99.90;;;;;;5018562;28;20359;-64
2023/11/09 04:00:11;;;;;;;0.10;0.10;;;10.00;99.90;;;;;;5023196;28;20407;-64
2023/11/09 04:02:38;;;;;;;0.20;0.20;;;9.90;99.90;;;;;;5020612;28;20487;-64
2023/11/09 04:05:04;;;;;;;0.10;0.10;;;9.90;99.90;;;;;;5026907;28;20053;-64
2023/11/09 04:07:30;;;;;;;0.10;0.10;;;9.90;99.90;;;;;;5019546;28;20132;-64
2023/11/09 04:09:59;;;;;;;0.20;0.20;;;9.90;99.90;;;;;;5014660;28;20480;-64
2023/11/09 04:12:24;;;;;;;0.10;0.10;;;9.90;99.90;;;;;;5014186;28;20050;-64
2023/11/09 04:14:50;;;;;;;0.45;0.30;;;9.90;99.90;;;;;;5027582;28;20449;-64
2023/11/09 04:17:16;;;;;;;0.30;0.30;;;9.90;99.90;;;;;;5026488;28;20042;-64
2023/11/09 04:19:42;;;;;;;0.13;0.13;;;9.90;99.90;;;;;;5012691;28;20059;-65
2023/11/09 04:22:08;;;;;;;0.28;0.20;;;9.90;99.90;;;;;;5015809;28;20085;-65
2023/11/09 04:24:34;;;;;;;0.20;0.20;;;9.90;99.90;;;;;;5025172;28;20076;-65
2023/11/09 04:27:01;;;;;;;0.13;0.13;;;9.90;99.90;;;;;;5026440;28;20045;-65
2023/11/09 04:29:27;;;;;;;0.10;0.10;;;9.90;99.90;;;;;;5014328;28;20065;-65
2023/11/09 09:00:51;;;;;;;11.73;2.08;;;9.90;99.90;;;;;;5032692;27;2729773;-65
2023/11/09 09:03:17;;;;;;;10.25;2.03;;;9.90;99.90;;;;;;5120380;28;20070;-65
2023/11/09 09:05:43;;;;;;;11.65;2.10;;;9.80;99.90;;;;;;5094822;28;20052;-65
2023/11/09 09:08:09;;;;;;;17.35;2.33;;;9.70;99.90;;;;;;5108192;28;20043;-65
2023/11/09 09:10:37;;;;;;;13.90;2.22;;;9.80;99.90;;;;;;5106281;28;20171;-65
2023/11/09 09:13:03;;;;;;;6.70;1.17;;;9.80;99.90;;;;;;5091982;28;20048;-66
2023/11/09 09:15:29;;;;;;;13.77;1.92;;;9.70;99.90;;;;;;5102753;28;20493;-66
2023/11/09 09:17:57;;;;;;;12.52;1.83;;;9.70;99.90;;;;;;5106219;28;20373;-66
2023/11/09 09:20:23;;;;;;;15.88;1.83;;;9.80;99.90;;;;;;5123377;28;20062;-66
2023/11/09 09:22:56;;;;;;;4.03;1.17;;;9.90;99.90;;;;;;5124194;28;20039;-66
2023/11/09 09:25:24;;;;;;;13.80;2.25;;;9.90;99.90;;;;;;5100031;28;20543;-65
2023/11/09 09:27:51;;;;;;;10.38;2.33;;;9.90;99.90;;;;;;5116897;28;20397;-65
2023/11/09 09:30:21;;;;;;;11.18;1.63;;;9.90;99.90;;;;;;5084738;28;20090;-65
2023/11/09 09:32:51;;;;;;;19.50;2.00;;;9.90;99.90;;;;;;5069733;28;20134;-65
2023/11/09 09:35:23;;;;;;;14.18;2.78;;;10.00;99.90;;;;;;5125349;28;20082;-65
2023/11/09 09:37:53;;;;;;;9.32;2.33;;;10.00;99.90;;;;;;5106249;28;20052;-65
2023/11/09 09:40:22;;;;;;;21.37;2.03;;;10.10;99.90;;;;;;5106727;28;20100;-65
2023/11/09 09:42:52;;;;;;;22.45;2.40;;;10.20;99.90;;;;;;5123139;28;20059;-65
2023/11/09 09:45:26;;;;;;;17.38;2.97;;;10.30;99.90;;;;;;5113917;28;20089;-65
2023/11/09 09:47:59;;;;;;;11.45;1.90;;;10.30;99.90;;;;;;5123313;28;20124;-65
2023/11/09 09:50:30;;;;;;;16.70;2.97;;;10.40;99.90;;;;;;5098638;28;20058;-65
2023/11/09 09:52:57;;;;;;;8.55;1.83;;;10.60;99.90;;;;;;5092648;28;20043;-65
2023/11/09 09:55:26;;;;;;;8.95;2.03;;;10.70;99.90;;;;;;5094651;28;20036;-65
2023/11/09 09:57:52;;;;;;;14.70;2.17;;;10.80;99.90;;;;;;5119967;28;20031;-65
2023/11/09 10:00:23;;;;;;;4.93;1.42;;;10.70;99.90;;;;;;5119966;28;20443;-65
2023/11/09 10:02:51;;;;;;;14.65;2.13;;;10.90;99.90;;;;;;5110267;28;20035;-65
2023/11/09 10:05:18;;;;;;;8.23;1.58;;;10.80;99.90;;;;;;5082558;28;20052;-65
2023/11/09 10:08:05;;;;;;;8.25;1.60;;;10.80;99.90;;;;;;5103663;28;20039;-65
2023/11/09 10:10:34;;;;;;;5.70;1.42;;;10.80;99.90;;;;;;5090083;28;20040;-65
2023/11/09 10:13:01;;;;;;;12.88;2.50;;;10.70;99.90;;;;;;5105690;28;20446;-65
2023/11/09 10:15:28;;;;;;;13.73;1.83;;;10.60;99.90;;;;;;5090232;28;20050;-66
2023/11/09 10:17:54;;;;;;;5.85;1.35;;;10.70;99.90;;;;;;5083985;28;20546;-65
2023/11/09 10:20:24;;;;;;;8.38;2.05;;;10.70;99.90;;;;;;5090842;28;20150;-65
2023/11/09 10:22:52;;;;;;;18.15;1.35;;;10.70;99.90;;;;;;5103234;28;20048;-65
2023/11/09 10:25:18;;;;;;;17.27;2.20;;;10.70;99.90;;;;;;5110089;28;20046;-65
2023/11/09 10:27:47;;;;;;;8.15;1.50;;;10.70;99.90;;;;;;5083045;28;20052;-66
2023/11/09 10:30:16;;;;;;;14.18;1.88;;;10.80;99.90;;;;;;5084360;28;20040;-65
2023/11/09 10:32:46;;;;;;;11.93;1.73;;;10.70;99.90;;;;;;5084748;28;20062;-65
2023/11/09 10:35:13;;;;;;;6.20;1.50;;;10.80;99.90;;;;;;5093357;28;20044;-66
2023/11/09 10:37:42;;;;;;;7.10;1.77;;;10.80;99.90;;;;;;5095376;28;20493;-65
2023/11/09 10:40:12;;;;;;;13.50;2.38;;;10.80;99.90;;;;;;5101920;28;20044;-65
2023/11/09 10:42:39;;;;;;;11.20;1.83;;;11.00;99.90;;;;;;5110805;28;20044;-65
2023/11/09 10:45:10;;;;;;;10.60;2.15;;;11.10;99.90;;;;;;5109994;28;20036;-65
2023/11/09 10:47:40;;;;;;;15.82;1.98;;;11.20;99.90;;;;;;5093169;28;20136;-65
2023/11/09 10:50:20;;;;;;;18.05;2.17;;;11.20;99.90;;;;;;5097617;28;20039;-65
2023/11/09 10:52:46;;;;;;;12.65;1.98;;;11.20;99.90;;;;;;5092359;28;20443;-65
2023/11/09 10:55:16;;;;;;;10.85;2.38;;;11.20;99.90;;;;;;5075375;28;20100;-65
2023/11/09 10:57:47;;;;;;;;;;;11.30;99.90;;;;;;5109954;28;20509;-65
2023/11/09 11:00:32;;;;;;;9.25;1.63;;;11.30;99.90;;;;;;5109963;28;19934;-65
2023/11/09 11:03:11;;;;;;;16.83;2.20;;;11.30;99.90;;;;;;5088054;28;20441;-65
2023/11/09 11:05:42;;;;;;;13.67;1.83;;;11.40;99.90;;;;;;5110258;28;20035;-65
2023/11/09 11:08:13;;;;;;;9.15;1.50;;;11.40;99.90;;;;;;5108866;28;20440;-65
2023/11/09 11:10:46;;;;;;;20.85;2.47;;;11.40;99.90;;;;;;5086709;28;20052;-65
2023/11/09 11:13:16;;;;;;;19.50;2.70;;;11.30;99.90;;;;;;5109383;28;20040;-65
2023/11/09 11:16:05;;;;;;;10.88;2.00;;;11.30;99.90;;;;;;5108831;28;20039;-65
2023/11/09 11:18:34;;;;;;;13.88;1.80;;;11.20;99.90;;;;;;5110499;28;20054;-65
2023/11/09 11:21:25;;;;;;;18.30;2.13;;;11.10;99.90;;;;;;5090915;28;20088;-65
2023/11/09 11:24:11;;;;;;;12.38;1.85;;;11.20;99.90;;;;;;5090367;28;20393;-65
2023/11/09 11:26:57;;;;;;;3.40;0.80;;;11.30;99.90;;;;;;5103729;28;20088;-65
2023/11/09 11:29:23;;;;;;;11.55;1.83;;;11.40;99.90;;;;;;5109348;28;20051;-65
2023/11/09 11:31:52;;;;;;;16.92;1.85;;;11.30;99.90;;;;;;5107432;28;20067;-66
2023/11/09 11:34:48;;;;;;;14.32;2.95;;;11.30;99.90;;;;;;5110292;28;20043;-65
2023/11/09 11:37:21;;;;;;;7.70;1.80;;;11.40;99.90;;;;;;5108847;28;20111;-65
2023/11/09 11:39:47;;;;;;;13.68;2.05;;;11.50;99.90;;;;;;5087010;28;20039;-65
2023/11/09 11:42:16;;;;;;;10.23;1.83;;;11.50;99.90;;;;;;5082224;28;20044;-65
2023/11/09 11:44:49;;;;;;;8.32;1.65;;;11.60;99.90;;;;;;5104974;28;20031;-65
2023/11/09 11:47:14;;;;;;;6.60;1.75;;;11.60;99.90;;;;;;5074800;28;20390;-65
2023/11/09 11:49:40;;;;;;;5.82;1.27;;;11.60;99.90;;;;;;5108321;28;20040;-65
2023/11/09 11:52:09;;;;;;;16.80;2.00;;;11.60;99.90;;;;;;5089916;28;20047;-65
2023/11/09 11:54:35;;;;;;;4.60;1.48;;;11.60;99.90;;;;;;5108692;28;20043;-65
2023/11/09 11:57:03;;;;;;;10.18;1.77;;;11.50;99.90;;;;;;5109283;28;20114;-65
2023/11/09 11:59:29;;;;;;;16.30;2.53;;;11.50;99.90;;;;;;5090336;28;20520;-65
2023/11/09 12:01:55;;;;;;;12.20;2.25;;;11.40;99.90;;;;;;5086603;28;20058;-65
2023/11/09 12:04:21;;;;;;;11.48;1.73;;;11.40;99.90;;;;;;5084180;28;20059;-65
2023/11/09 12:06:49;;;;;;;14.18;1.98;;;11.40;99.90;;;;;;5089559;28;20118;-65
2023/11/09 12:09:15;;;;;;;11.43;2.03;;;11.40;99.90;;;;;;5091294;28;20468;-65
2023/11/09 12:11:44;;;;;;;12.82;1.98;;;11.40;99.90;;;;;;5089211;28;20071;-65
2023/11/09 12:14:11;;;;;;;11.77;1.83;;;11.50;99.90;;;;;;5107895;28;20044;-65
2023/11/09 12:16:41;;;;;;;9.02;2.33;;;11.40;99.90;;;;;;5106675;28;20048;-65
2023/11/09 12:19:11;;;;;;;9.63;1.60;;;11.50;99.90;;;;;;5089975;28;20485;-65
2023/11/09 12:21:38;;;;;;;9.43;1.70;;;11.40;99.90;;;;;;5107154;28;20145;-65
2023/11/09 12:24:09;;;;;;;4.25;1.30;;;11.40;99.90;;;;;;5100720;28;20050;-65
2023/11/09 12:26:36;;;;;;;7.20;1.80;;;11.30;99.90;;;;;;5105780;28;20035;-65
2023/11/09 12:29:01;;;;;;;7.88;1.80;;;11.30;99.90;;;;;;5087561;28;20408;-65
2023/11/09 12:31:29;;;;;;;9.50;2.17;;;11.20;99.90;;;;;;5105707;28;20023;-65
2023/11/09 12:34:10;;;;;;;;;;;11.30;99.90;;;;;;5089724;28;20172;-65
2023/11/09 12:36:41;;;;;;;11.00;1.83;;;11.30;99.90;;;;;;5088883;28;19927;-65
2023/11/09 12:41:52;;;;;;;16.73;1.98;;;11.30;99.90;;;;;;5101775;28;20040;-65
2023/11/09 12:44:24;;;;;;;9.10;1.67;;;11.30;99.90;;;;;;5105515;28;20054;-65
2023/11/09 12:46:53;;;;;;;10.88;1.60;;;11.30;99.90;;;;;;5098392;28;20190;-65
2023/11/09 12:49:26;;;;;;;9.27;1.63;;;11.40;99.90;;;;;;5095643;28;20455;-65
2023/11/09 12:51:53;;;;;;;6.95;1.55;;;11.40;99.90;;;;;;5079481;28;20047;-64
2023/11/09 12:54:22;;;;;;;9.82;2.22;;;11.40;99.90;;;;;;5107754;28;20063;-64
2023/11/09 12:56:49;;;;;;;11.40;1.83;;;11.50;99.90;;;;;;5078239;28;20059;-65
2023/11/09 12:59:24;;;;;;;9.18;2.17;;;11.40;99.90;;;;;;5049747;28;20097;-65
2023/11/09 13:01:56;;;;;;;8.43;1.83;;;11.40;99.90;;;;;;5098426;28;20090;-65
2023/11/09 13:04:28;;;;;;;10.23;1.70;;;11.40;99.90;;;;;;5097557;28;20635;-64
2023/11/09 13:06:58;;;;;;;5.72;1.30;;;11.40;99.90;;;;;;5101132;28;20028;-65
2023/11/09 13:14:50;;;;;;;9.25;1.60;;;11.30;99.90;;;;;;5081992;28;20039;-64
2023/11/09 13:17:18;;;;;;;7.93;1.70;;;11.20;99.90;;;;;;5095741;28;20328;-65
2023/11/09 13:19:48;;;;;;;13.25;1.75;;;11.30;99.90;;;;;;5082132;28;20046;-65
2023/11/09 13:22:15;;;;;;;;;;;11.30;99.90;;;;;;5105581;28;20043;-65
2023/11/09 13:24:42;;;;;;;8.93;1.48;;;11.30;99.90;;;;;;5098937;28;19970;-64
2023/11/09 13:27:16;;;;;;;11.23;1.65;;;11.30;99.90;;;;;;5079908;28;20500;-65
2023/11/09 13:29:45;;;;;;;10.18;1.70;;;11.30;99.90;;;;;;5105395;28;20055;-65
2023/11/09 13:32:17;;;;;;;8.98;1.30;;;11.30;99.90;;;;;;5085408;28;20500;-64
2023/11/09 13:34:47;;;;;;;11.35;1.92;;;11.30;99.90;;;;;;5107907;28;20046;-64
2023/11/09 13:37:26;;;;;;;13.43;1.73;;;11.20;99.90;;;;;;5106726;28;20070;-65
2023/11/09 13:40:30;;;;;;;8.40;1.83;;;11.20;99.90;;;;;;5109185;28;20054;-64
2023/11/09 13:42:38;;;;;;;12.75;1.48;;;11.20;99.90;;;;;;5088131;28;20043;-64
2023/11/09 13:45:34;;;;;;;7.63;1.48;;;11.10;99.90;;;;;;5111124;28;20054;-64
2023/11/09 13:48:07;;;;;;;13.65;2.03;;;11.10;99.90;;;;;;5110526;28;20043;-65
2023/11/09 13:50:36;;;;;;;7.93;1.80;;;11.10;99.90;;;;;;5106793;28;20407;-65
2023/11/09 13:53:11;;;;;;;13.05;1.67;;;11.00;99.90;;;;;;5103513;28;20044;-64
2023/11/09 13:56:57;;;;;;;10.23;1.83;;;11.00;99.90;;;;;;5110181;28;20035;-64
2023/11/09 13:58:25;;;;;;;10.43;1.75;;;11.00;99.90;;;;;;5102277;28;20066;-65
2023/11/09 14:01:00;;;;;;;10.05;2.30;;;10.90;99.90;;;;;;5104803;28;20476;-65
2023/11/09 14:03:31;;;;;;;6.55;1.80;;;10.90;99.90;;;;;;5107294;28;20032;-65
2023/11/09 14:05:58;;;;;;;6.53;1.33;;;10.80;99.90;;;;;;5109905;28;20073;-64
2023/11/09 14:08:25;;;;;;;6.90;1.35;;;10.70;99.90;;;;;;5109406;28;20534;-65
2023/11/09 14:10:51;;;;;;;10.57;1.60;;;10.70;99.90;;;;;;5088693;28;20109;-65
2023/11/09 14:13:28;;;;;;;10.43;1.60;;;10.70;99.90;;;;;;5057612;28;20523;-65
2023/11/09 14:16:06;;;;;;;17.42;2.10;;;10.70;99.90;;;;;;5086420;28;20104;-65
2023/11/09 14:21:23;;;;;;;11.55;1.77;;;10.60;99.90;;;;;;5106385;28;20047;-65
2023/11/09 14:23:54;;;;;;;8.82;1.73;;;10.50;99.90;;;;;;5107184;28;20073;-64
2023/11/09 14:26:27;;;;;;;7.03;1.70;;;10.50;99.90;;;;;;5104945;28;20082;-64
2023/11/09 14:29:01;;;;;;;8.90;1.80;;;10.40;99.90;;;;;;5106808;28;20055;-64
2023/11/09 14:31:32;;;;;;;8.00;1.73;;;10.40;99.90;;;;;;5075143;28;20096;-65
2023/11/09 14:33:59;;;;;;;14.35;2.13;;;10.30;99.90;;;;;;5100343;28;20036;-64
2023/11/09 14:36:26;;;;;;;8.70;1.40;;;10.30;99.90;;;;;;5104967;28;20032;-65
2023/11/09 14:38:52;;;;;;;10.07;1.90;;;10.30;99.90;;;;;;5089335;28;20062;-64
2023/11/09 14:41:18;;;;;;;6.10;1.65;;;10.30;99.90;;;;;;5079056;28;20039;-64
2023/11/09 14:43:44;;;;;;;6.00;0.98;;;10.30;99.90;;;;;;5089236;28;20493;-65
2023/11/09 14:46:17;;;;;;;11.05;1.58;;;10.20;99.90;;;;;;5107034;28;20067;-64
2023/11/09 14:48:45;;;;;;;9.13;1.90;;;10.20;99.90;;;;;;5102277;28;20089;-64
2023/11/09 14:51:20;;;;;;;9.98;1.75;;;10.10;99.90;;;;;;5107919;28;20043;-65
2023/11/09 14:53:48;;;;;;;7.68;1.45;;;10.10;99.90;;;;;;5103829;28;20082;-64
2023/11/09 14:56:14;;;;;;;7.78;1.60;;;10.10;99.90;;;;;;5104648;28;20083;-65
2023/11/09 14:58:43;;;;;;;7.22;1.42;;;10.00;99.90;;;;;;5089145;28;20128;-65
2023/11/09 15:01:10;;;;;;;8.40;1.55;;;10.00;99.90;;;;;;5106084;28;20044;-64
2023/11/09 15:03:37;;;;;;;9.10;1.50;;;10.00;99.90;;;;;;5105244;28;20035;-64
2023/11/09 15:06:11;;;;;;;14.05;1.50;;;10.00;99.90;;;;;;5090959;28;20557;-64
2023/11/09 15:08:37;;;;;;;6.63;1.35;;;9.90;99.90;;;;;;5108561;28;20054;-65
2023/11/09 15:11:06;;;;;;;4.47;1.50;;;9.90;99.90;;;;;;5108732;28;20039;-65
2023/11/09 15:13:33;;;;;;;7.38;1.90;;;9.90;99.90;;;;;;5084131;28;20048;-64
2023/11/09 15:16:08;;;;;;;13.57;2.15;;;9.90;99.90;;;;;;5089467;28;20127;-64
2023/11/09 15:18:35;;;;;;;8.07;1.60;;;9.80;99.90;;;;;;5109209;28;20048;-64
2023/11/09 15:21:04;;;;;;;5.97;1.55;;;9.80;99.90;;;;;;5106428;28;20124;-64
2023/11/09 15:23:32;;;;;;;6.97;1.75;;;9.80;99.90;;;;;;5105378;28;20160;-64
2023/11/09 15:25:58;;;;;;;10.55;1.88;;;9.70;99.90;;;;;;5108079;28;20128;-64
2023/11/09 15:28:24;;;;;;;9.23;1.65;;;9.60;99.90;;;;;;5089469;28;20078;-64
2023/11/09 15:30:51;;;;;;;11.60;2.70;;;9.60;99.90;;;;;;5089474;28;20086;-64
2023/11/09 15:33:20;;;;;;;12.73;1.88;;;9.50;99.90;;;;;;5086023;28;20731;-64
2023/11/09 15:35:48;;;;;;;6.50;1.27;;;9.50;99.90;;;;;;5089145;28;20081;-64
2023/11/09 15:38:15;;;;;;;7.55;1.52;;;9.40;99.90;;;;;;5076985;28;20047;-64
2023/11/09 15:40:42;;;;;;;7.65;1.83;;;9.40;99.90;;;;;;5097670;28;20048;-64
2023/11/09 15:43:10;;;;;;;8.43;1.65;;;9.30;99.90;;;;;;5075366;28;20141;-64
2023/11/09 15:45:42;;;;;;;11.20;2.17;;;9.30;99.90;;;;;;5090513;28;20093;-64
2023/11/09 15:48:08;;;;;;;10.43;1.98;;;9.30;99.90;;;;;;5101302;28;20501;-64
2023/11/09 15:50:36;;;;;;;12.25;1.50;;;9.20;99.90;;;;;;5098984;28;20091;-64
2023/11/09 15:53:02;;;;;;;8.88;1.85;;;9.20;99.90;;;;;;5089049;28;20526;-64
2023/11/09 15:55:29;;;;;;;7.45;1.75;;;9.20;99.90;;;;;;5102335;28;20136;-64
2023/11/09 15:57:59;;;;;;;6.13;1.88;;;9.10;99.90;;;;;;5094212;28;20043;-64
2023/11/09 16:00:26;;;;;;;;;;;9.10;99.90;;;;;;5070030;28;20464;-64
2023/11/09 16:02:54;;;;;;;8.93;2.10;;;9.10;99.90;;;;;;5101655;28;19924;-64
2023/11/09 16:05:22;;;;;;;10.50;1.77;;;9.10;99.90;;;;;;5091472;28;20514;-64
2023/11/09 16:07:53;;;;;;;8.85;2.40;;;9.00;99.90;;;;;;5087294;28;20119;-64
2023/11/09 16:10:21;;;;;;;11.90;2.10;;;9.00;99.90;;;;;;5100416;28;20044;-64
2023/11/09 16:12:47;;;;;;;3.80;2.00;;;9.00;99.90;;;;;;5102473;28;20110;-64
2023/11/09 16:15:14;;;;;;;11.38;2.67;;;9.00;99.90;;;;;;5104431;28;20558;-64
2023/11/09 16:17:40;;;;;;;8.48;2.25;;;9.00;99.90;;;;;;5086627;28;20038;-64
2023/11/09 16:20:12;;;;;;;10.55;2.08;;;8.90;99.90;;;;;;5072451;28;20397;-64
2023/11/09 16:22:40;;;;;;;7.88;2.53;;;9.00;99.90;;;;;;5090240;28;20505;-64
2023/11/09 16:25:12;;;;;;;5.00;1.98;;;8.90;99.90;;;;;;5088583;28;20047;-64
2023/11/09 16:27:41;;;;;;;11.80;3.00;;;8.90;99.90;;;;;;5083318;28;20059;-64
2023/11/09 16:30:10;;;;;;;8.13;1.98;;;8.90;99.90;;;;;;5087605;28;20126;-64
2023/11/09 16:32:35;;;;;;;11.40;2.27;;;8.90;99.90;;;;;;5087308;28;20405;-64
2023/11/09 16:35:02;;;;;;;3.80;1.98;;;8.80;99.90;;;;;;5081346;28;20114;-64
2023/11/09 16:37:28;;;;;;;8.02;2.13;;;8.80;99.90;;;;;;5105843;28;20086;-64
2023/11/09 16:39:54;;;;;;;7.93;2.33;;;8.80;99.90;;;;;;5085546;28;20133;-64
2023/11/09 16:42:22;;;;;;;8.13;1.85;;;8.80;99.90;;;;;;5102568;28;20054;-64
2023/11/09 16:44:49;;;;;;;8.23;2.13;;;8.80;99.90;;;;;;5082749;28;20101;-64
2023/11/09 16:47:15;;;;;;;7.35;1.88;;;8.70;99.90;;;;;;5106674;28;20040;-64
2023/11/09 16:49:40;;;;;;;6.40;2.08;;;8.70;99.90;;;;;;5088315;28;20058;-64
2023/11/09 16:52:08;;;;;;;9.60;2.10;;;8.70;99.90;;;;;;5100802;28;20123;-64
2023/11/09 16:54:34;;;;;;;10.20;2.20;;;8.80;99.90;;;;;;5068862;28;20408;-64
2023/11/09 16:56:59;;;;;;;7.63;1.90;;;8.80;99.90;;;;;;5083327;28;20055;-64
2023/11/09 16:59:25;;;;;;;7.28;1.92;;;8.80;99.90;;;;;;5086264;28;20525;-64
2023/11/09 17:01:51;;;;;;;5.72;2.45;;;8.80;99.90;;;;;;5090614;28;20048;-64
2023/11/09 17:04:17;;;;;;;12.93;1.95;;;8.80;99.90;;;;;;5087080;28;20036;-64
2023/11/09 17:06:43;;;;;;;6.18;2.05;;;8.80;99.90;;;;;;5064794;28;20056;-64
2023/11/09 17:09:12;;;;;;;9.65;2.20;;;8.90;99.90;;;;;;5071849;28;20551;-64
2023/11/09 17:11:38;;;;;;;7.05;2.08;;;8.90;99.90;;;;;;5091050;28;20047;-64
2023/11/09 17:14:05;;;;;;;8.27;1.70;;;8.90;99.90;;;;;;5092746;28;20066;-64
2023/11/09 17:16:31;;;;;;;6.90;1.90;;;9.00;99.90;;;;;;5087243;28;20097;-64
2023/11/09 17:18:59;;;;;;;10.10;2.20;;;9.00;99.90;;;;;;5103225;28;20047;-64
2023/11/09 17:21:25;;;;;;;11.25;2.20;;;9.00;99.90;;;;;;5109346;28;20039;-64
2023/11/09 17:23:51;;;;;;;12.02;2.08;;;9.00;99.90;;;;;;5110796;28;20089;-64
2023/11/09 17:26:17;;;;;;;11.05;2.22;;;9.00;99.90;;;;;;5110101;28;20654;-64
2023/11/09 17:28:43;;;;;;;6.82;1.83;;;9.00;99.90;;;;;;5093081;28;20094;-64
2023/11/09 17:31:08;;;;;;;8.68;2.00;;;9.00;99.90;;;;;;5077173;28;20158;-64
2023/11/09 17:33:36;;;;;;;10.73;2.42;;;9.00;99.90;;;;;;5081699;28;20039;-64
2023/11/09 17:36:01;;;;;;;10.75;2.00;;;9.00;99.90;;;;;;5090715;28;20043;-64